createdAt,value
2018-02-24T00:00:11.276Z,42.80
2018-02-24T00:02:37.833Z,40.67
2018-02-24T00:05:04.347Z,42.60
2018-02-24T00:07:30.851Z,43.30
2018-02-24T00:09:57.380Z,41.93
2018-02-24T00:12:23.877Z,42.53
2018-02-24T00:14:50.403Z,41.40
2018-02-24T00:17:16.932Z,44.17
2018-02-24T00:19:43.462Z,41.20
2018-02-24T00:22:10.040Z,41.10
2018-02-24T00:24:36.562Z,38.60
2018-02-24T00:27:03.117Z,38.53
2018-02-24T00:29:29.708Z,38.90
2018-02-24T00:31:56.215Z,37.00
2018-02-24T00:34:23.492Z,38.90
2018-02-24T00:36:50.068Z,37.07
2018-02-24T00:39:16.629Z,38.27
2018-02-24T00:41:43.866Z,38.23
2018-02-24T00:44:10.397Z,39.57
2018-02-24T00:46:36.898Z,41.27
2018-02-24T00:49:03.474Z,41.13
2018-02-24T00:51:30.094Z,37.40
2018-02-24T00:53:56.656Z,40.40
2018-02-24T00:56:23.951Z,38.97
2018-02-24T00:58:50.515Z,37.07
2018-02-24T01:01:17.105Z,39.07
2018-02-24T01:03:43.621Z,36.33
2018-02-24T01:06:10.948Z,34.30
2018-02-24T01:08:37.481Z,36.50
2018-02-24T01:11:03.998Z,37.17
2018-02-24T01:13:30.687Z,36.93
2018-02-24T01:15:57.197Z,37.40
2018-02-24T01:18:23.771Z,39.60
2018-02-24T01:20:50.345Z,39.63
2018-02-24T01:23:16.883Z,39.23
2018-02-24T01:25:43.393Z,43.63
2018-02-24T01:28:09.927Z,39.73
2018-02-24T01:30:36.462Z,42.17
2018-02-24T01:33:03.001Z,39.93
2018-02-24T01:35:29.528Z,43.63
2018-02-24T01:37:56.089Z,44.87
2018-02-24T01:40:22.580Z,48.10
2018-02-24T01:42:50.793Z,49.77
2018-02-24T01:45:17.274Z,46.53
2018-02-24T01:47:44.557Z,45.80
2018-02-24T01:50:12.814Z,45.13
2018-02-24T01:52:39.312Z,58.00
2018-02-24T01:55:05.814Z,56.20
2018-02-24T01:57:32.353Z,51.17
2018-02-24T01:59:58.854Z,53.83
2018-02-24T02:02:25.347Z,47.23
2018-02-24T02:04:51.882Z,48.90
2018-02-24T02:07:18.396Z,54.17
2018-02-24T02:09:44.912Z,51.87
2018-02-24T02:12:12.150Z,60.13
2018-02-24T02:14:39.427Z,48.87
2018-02-24T02:17:05.980Z,65.90
2018-02-24T02:19:32.503Z,52.47
2018-02-24T02:21:59.020Z,53.17
2018-02-24T02:24:25.667Z,55.70
2018-02-24T02:26:52.176Z,57.73
2018-02-24T02:29:18.695Z,51.43
2018-02-24T02:31:46.226Z,48.33
2018-02-24T02:34:12.769Z,58.70
2018-02-24T02:36:39.370Z,56.83
2018-02-24T02:39:06.931Z,44.93
2018-02-24T02:41:33.527Z,56.93
2018-02-24T02:44:00.088Z,58.30
2018-02-24T02:46:26.597Z,58.00
2018-02-24T02:48:53.105Z,51.70
2018-02-24T02:51:19.592Z,51.63
2018-02-24T02:53:46.857Z,55.17
2018-02-24T02:56:14.102Z,56.63
2018-02-24T02:58:40.612Z,54.47
2018-02-24T03:01:07.151Z,53.03
2018-02-24T03:03:34.266Z,56.93
2018-02-24T03:06:00.786Z,53.97
2018-02-24T03:08:27.317Z,53.43
2018-02-24T03:10:53.924Z,47.70
2018-02-24T03:13:20.464Z,59.93
2018-02-24T03:15:47.741Z,48.53
2018-02-24T03:18:14.274Z,50.70
2018-02-24T03:20:40.779Z,53.27
2018-02-24T03:23:07.329Z,54.03
2018-02-24T03:25:33.922Z,50.67
2018-02-24T03:28:00.440Z,52.93
2018-02-24T03:30:26.974Z,57.63
2018-02-24T03:32:53.541Z,54.07
2018-02-24T03:35:20.094Z,51.53
2018-02-24T03:37:46.593Z,52.77
2018-02-24T03:40:13.908Z,50.97
2018-02-24T03:42:40.502Z,54.90
2018-02-24T03:45:07.071Z,48.97
2018-02-24T03:47:33.676Z,51.90
2018-02-24T03:50:00.224Z,51.70
2018-02-24T03:52:26.803Z,49.23
2018-02-24T03:54:53.434Z,53.97
2018-02-24T03:57:20.058Z,53.97
2018-02-24T03:59:46.598Z,48.83
2018-02-24T04:02:13.869Z,53.33
2018-02-24T04:04:40.396Z,52.33
2018-02-24T04:07:06.938Z,46.83
2018-02-24T04:09:33.520Z,52.27
2018-02-24T04:12:00.089Z,52.23
2018-02-24T04:14:26.641Z,51.33
2018-02-24T04:16:53.174Z,51.70
2018-02-24T04:19:19.668Z,51.33
2018-02-24T04:21:46.983Z,49.30
2018-02-24T04:24:13.518Z,53.83
2018-02-24T04:26:40.096Z,53.10
2018-02-24T04:29:06.571Z,56.87
2018-02-24T04:31:33.075Z,55.90
2018-02-24T04:33:59.577Z,54.43
2018-02-24T04:36:26.069Z,54.83
2018-02-24T04:38:52.606Z,56.40
2018-02-24T04:41:19.177Z,49.17
2018-02-24T04:43:45.708Z,55.03
2018-02-24T04:46:12.237Z,51.37
2018-02-24T04:48:38.762Z,51.53
2018-02-24T04:51:05.285Z,60.53
2018-02-24T04:53:31.831Z,58.30
2018-02-24T04:55:58.390Z,51.57
2018-02-24T04:58:24.903Z,57.17
2018-02-24T05:00:52.178Z,43.00
2018-02-24T05:03:18.684Z,54.10
2018-02-24T05:05:45.246Z,44.80
2018-02-24T05:08:12.643Z,50.63
2018-02-24T05:10:39.138Z,54.47
2018-02-24T05:13:05.710Z,62.57
2018-02-24T05:15:32.214Z,58.73
2018-02-24T05:17:58.719Z,56.17
2018-02-24T05:20:25.238Z,62.33
2018-02-24T05:22:52.484Z,60.83
2018-02-24T05:25:19.783Z,60.03
2018-02-24T05:27:46.298Z,58.97
2018-02-24T05:30:12.828Z,62.23
2018-02-24T05:32:39.362Z,59.40
2018-02-24T05:35:05.882Z,59.27
2018-02-24T05:37:33.130Z,59.87
2018-02-24T05:40:00.369Z,62.40
2018-02-24T05:42:26.907Z,60.03
2018-02-24T05:44:53.453Z,57.27
2018-02-24T05:47:20.737Z,54.53
2018-02-24T05:49:47.237Z,55.33
2018-02-24T05:52:13.794Z,56.93
2018-02-24T05:54:40.305Z,58.13
2018-02-24T05:57:06.820Z,59.30
2018-02-24T05:59:33.365Z,50.77
2018-02-24T06:01:59.908Z,58.93
2018-02-24T06:04:26.465Z,54.00
2018-02-24T06:06:53.047Z,59.33
2018-02-24T06:09:19.557Z,53.23
2018-02-24T06:11:46.063Z,52.67
2018-02-24T06:14:13.316Z,59.47
2018-02-24T06:16:40.666Z,58.97
2018-02-24T06:19:07.172Z,59.63
2018-02-24T06:21:33.714Z,55.80
2018-02-24T06:24:00.214Z,57.10
2018-02-24T06:26:26.752Z,59.50
2018-02-24T06:28:53.242Z,57.60
2018-02-24T06:31:19.749Z,61.43
2018-02-24T06:33:46.280Z,59.50
2018-02-24T06:36:12.849Z,59.97
2018-02-24T06:38:40.174Z,57.40
2018-02-24T06:41:06.801Z,60.60
2018-02-24T06:43:33.312Z,60.20
2018-02-24T06:45:59.840Z,58.77
2018-02-24T06:48:26.393Z,60.20
2018-02-24T06:50:52.890Z,56.67
2018-02-24T06:53:19.549Z,64.70
2018-02-24T06:55:46.061Z,63.50
2018-02-24T06:58:12.581Z,59.43
2018-02-24T07:00:39.128Z,68.37
2018-02-24T07:03:05.672Z,61.80
2018-02-24T07:05:32.896Z,60.30
2018-02-24T07:07:59.419Z,56.27
2018-02-24T07:10:25.917Z,55.30
2018-02-24T07:12:52.442Z,63.57
2018-02-24T07:15:18.954Z,57.33
2018-02-24T07:17:45.453Z,54.23
2018-02-24T07:20:12.004Z,54.80
2018-02-24T07:22:38.590Z,56.53
2018-02-24T07:25:05.133Z,55.53
2018-02-24T07:27:31.659Z,53.33
2018-02-24T07:29:58.171Z,36.83
2018-02-24T07:32:24.707Z,49.20
2018-02-24T07:34:51.965Z,55.60
2018-02-24T07:37:19.185Z,55.70
2018-02-24T07:39:45.717Z,53.77
2018-02-24T07:42:12.213Z,54.43
2018-02-24T07:44:38.719Z,57.03
2018-02-24T07:47:05.983Z,53.03
2018-02-24T07:49:32.498Z,52.87
2018-02-24T07:51:59.815Z,52.37
2018-02-24T07:54:26.342Z,48.37
2018-02-24T07:56:52.899Z,54.43
2018-02-24T07:59:21.188Z,51.33
2018-02-24T08:01:47.681Z,51.53
2018-02-24T08:04:14.153Z,52.80
2018-02-24T08:06:40.663Z,42.50
2018-02-24T08:09:07.155Z,56.10
2018-02-24T08:11:33.664Z,50.63
2018-02-24T08:14:00.182Z,51.47
2018-02-24T08:16:26.658Z,50.27
2018-02-24T08:18:53.954Z,51.27
2018-02-24T08:21:20.457Z,55.30
2018-02-24T08:23:46.963Z,42.13
2018-02-24T08:26:13.501Z,44.80
2018-02-24T08:28:40.026Z,50.23
2018-02-24T08:31:06.511Z,55.07
2018-02-24T08:33:32.987Z,52.73
2018-02-24T08:35:59.543Z,53.57
2018-02-24T08:38:26.179Z,52.60
2018-02-24T08:40:52.764Z,52.70
2018-02-24T08:43:19.277Z,43.37
2018-02-24T08:45:46.516Z,48.63
2018-02-24T08:48:13.042Z,53.67
2018-02-24T08:50:39.571Z,51.90
2018-02-24T08:53:06.093Z,53.97
2018-02-24T08:55:32.652Z,47.50
2018-02-24T08:57:59.173Z,51.00
2018-02-24T09:00:26.676Z,51.83
2018-02-24T09:02:53.213Z,51.70
2018-02-24T09:05:19.803Z,48.63
2018-02-24T09:07:46.340Z,44.40
2018-02-24T09:10:12.874Z,51.40
2018-02-24T09:12:40.223Z,52.00
2018-02-24T09:15:06.763Z,54.43
2018-02-24T09:17:33.307Z,46.13
2018-02-24T09:19:59.899Z,45.17
2018-02-24T09:22:26.415Z,48.47
2018-02-24T09:24:52.950Z,52.43
2018-02-24T09:27:19.558Z,48.40
2018-02-24T09:29:46.077Z,50.07
2018-02-24T09:32:13.476Z,45.60
2018-02-24T09:34:39.994Z,44.30
2018-02-24T09:37:06.512Z,48.87
2018-02-24T09:39:33.021Z,47.27
2018-02-24T09:41:59.517Z,48.70
2018-02-24T09:44:26.173Z,50.60
2018-02-24T09:46:52.696Z,52.57
2018-02-24T09:49:19.234Z,51.50
2018-02-24T09:51:45.770Z,47.30
2018-02-24T09:54:12.274Z,51.50
2018-02-24T09:56:38.795Z,51.93
2018-02-24T09:59:05.317Z,53.03
2018-02-24T10:01:31.863Z,49.43
2018-02-24T10:03:58.346Z,47.10
2018-02-24T10:06:24.912Z,49.20
2018-02-24T10:08:51.418Z,47.23
2018-02-24T10:11:18.021Z,49.80
2018-02-24T10:13:44.509Z,49.00
2018-02-24T10:16:11.014Z,44.03
2018-02-24T10:18:37.540Z,52.17
2018-02-24T10:21:04.802Z,48.97
2018-02-24T10:23:31.297Z,48.57
2018-02-24T10:25:57.839Z,49.90
2018-02-24T10:28:24.318Z,51.67
2018-02-24T10:30:50.814Z,49.60
2018-02-24T10:33:17.316Z,46.23
2018-02-24T10:35:43.848Z,46.80
2018-02-24T10:38:10.339Z,44.30
2018-02-24T10:40:37.607Z,52.70
2018-02-24T10:43:04.165Z,48.50
2018-02-24T10:45:30.683Z,50.17
2018-02-24T10:47:57.171Z,50.20
2018-02-24T10:50:23.673Z,50.67
2018-02-24T10:52:50.220Z,52.60
2018-02-24T10:55:16.749Z,51.20
2018-02-24T10:57:44.027Z,49.03
2018-02-24T11:00:10.547Z,48.87
2018-02-24T11:02:37.906Z,48.90
2018-02-24T11:59:26.690Z,38.53
2018-02-24T12:01:53.277Z,40.63
2018-02-24T12:04:19.897Z,39.20
2018-02-24T12:06:46.618Z,38.20
2018-02-24T12:09:13.210Z,38.57
2018-02-24T12:11:39.710Z,36.17
2018-02-24T12:14:06.293Z,35.40
2018-02-24T12:16:32.828Z,37.73
2018-02-24T12:18:59.341Z,35.60
2018-02-24T12:21:26.611Z,37.43
2018-02-24T12:23:53.970Z,36.40
2018-02-24T12:26:21.290Z,35.23
2018-02-24T12:28:47.821Z,35.80
2018-02-24T12:31:14.386Z,35.03
2018-02-24T12:33:41.773Z,34.37
2018-02-24T12:36:08.320Z,36.63
2018-02-24T12:38:34.900Z,36.20
2018-02-24T12:41:01.790Z,36.60
2018-02-24T12:43:28.303Z,35.77
2018-02-24T12:45:54.827Z,35.80
2018-02-24T12:48:22.079Z,34.83
2018-02-24T12:50:49.361Z,35.87
2018-02-24T12:53:15.927Z,35.53
2018-02-24T12:55:43.201Z,35.80
2018-02-24T12:58:09.757Z,39.27
2018-02-24T13:00:36.353Z,36.87
2018-02-24T13:03:02.939Z,35.03
2018-02-24T13:05:30.207Z,35.63
2018-02-24T13:07:56.711Z,39.30
2018-02-24T13:10:23.262Z,37.63
2018-02-24T13:12:50.527Z,36.90
2018-02-24T13:15:17.023Z,37.40
2018-02-24T13:17:43.607Z,33.53
2018-02-24T13:20:10.217Z,36.43
2018-02-24T13:22:37.804Z,35.17
2018-02-24T13:25:04.484Z,35.93
2018-02-24T13:27:31.140Z,35.23
2018-02-24T13:29:57.654Z,35.37
2018-02-24T13:32:24.145Z,36.73
2018-02-24T13:34:50.757Z,35.70
2018-02-24T13:37:17.322Z,36.23
2018-02-24T13:39:43.856Z,34.43
2018-02-24T13:42:10.364Z,31.50
2018-02-24T13:44:37.664Z,33.13
2018-02-24T13:47:04.246Z,34.67
2018-02-24T13:49:30.745Z,32.20
2018-02-24T13:51:58.025Z,33.57
2018-02-24T13:54:24.524Z,35.30
2018-02-24T13:56:51.025Z,34.10
2018-02-24T13:59:18.279Z,31.93
2018-02-24T14:01:45.543Z,33.60
2018-02-24T14:04:12.087Z,33.23
2018-02-24T14:06:38.592Z,34.33
2018-02-24T14:09:05.830Z,33.07
2018-02-24T14:11:32.354Z,31.70
2018-02-24T14:13:58.886Z,31.33
2018-02-24T14:16:25.398Z,33.45
2018-02-24T14:18:51.938Z,32.23
2018-02-24T14:21:18.467Z,31.07
2018-02-24T14:23:45.002Z,32.17
2018-02-24T14:26:11.589Z,31.00
2018-02-24T14:28:38.148Z,32.93
2018-02-24T14:31:04.680Z,31.47
2018-02-24T14:33:31.186Z,31.80
2018-02-24T14:35:57.713Z,30.10
2018-02-24T14:38:24.237Z,31.73
2018-02-24T14:40:50.707Z,31.23
2018-02-24T14:43:17.969Z,30.57
2018-02-24T14:45:44.518Z,31.20
2018-02-24T14:48:11.076Z,32.47
2018-02-24T14:50:37.565Z,30.87
2018-02-24T14:53:04.059Z,30.50
2018-02-24T14:55:30.593Z,32.67
2018-02-24T14:57:57.438Z,30.47
2018-02-24T15:00:23.948Z,29.70
2018-02-24T15:02:50.433Z,31.03
2018-02-24T15:05:16.954Z,30.50
2018-02-24T15:07:43.543Z,32.03
2018-02-24T15:10:10.071Z,32.20
2018-02-24T15:12:36.565Z,36.73
2018-02-24T15:15:03.495Z,36.97
2018-02-24T15:17:30.137Z,38.53
2018-02-24T15:19:56.682Z,39.07
2018-02-24T15:22:23.250Z,40.37
2018-02-24T15:24:49.830Z,36.47
2018-02-24T15:27:17.100Z,41.70
2018-02-24T15:29:43.592Z,36.83
2018-02-24T15:32:11.042Z,36.03
2018-02-24T15:34:37.607Z,39.10
2018-02-24T15:37:04.146Z,37.83
2018-02-24T15:39:30.826Z,38.57
2018-02-24T15:41:57.350Z,39.13
2018-02-24T15:44:23.855Z,37.33
2018-02-24T15:46:50.370Z,38.50
2018-02-24T15:49:16.863Z,38.40
2018-02-24T15:51:43.411Z,37.63
2018-02-24T15:54:10.924Z,36.17
2018-02-24T15:56:37.438Z,36.97
2018-02-24T15:59:03.938Z,35.60
2018-02-24T16:01:30.432Z,35.83
2018-02-24T16:03:56.914Z,36.37
2018-02-24T16:06:23.497Z,34.03
2018-02-24T16:08:50.038Z,28.57
2018-02-24T16:11:16.557Z,31.80
2018-02-24T16:13:43.055Z,29.80
2018-02-24T16:16:09.634Z,32.47
2018-02-24T16:18:36.121Z,34.77
2018-02-24T16:21:03.417Z,37.23
2018-02-24T16:23:29.965Z,35.77
2018-02-24T16:25:56.474Z,35.17
2018-02-24T16:28:23.008Z,35.87
2018-02-24T16:30:49.522Z,38.13
2018-02-24T16:33:16.072Z,36.87
2018-02-24T16:35:42.625Z,37.03
2018-02-24T16:38:09.915Z,37.20
2018-02-24T16:40:36.442Z,39.90
2018-02-24T16:43:02.944Z,39.10
2018-02-24T16:45:29.414Z,39.10
2018-02-24T16:47:55.948Z,37.27
2018-02-24T16:50:22.454Z,35.57
2018-02-24T16:52:48.938Z,35.23
2018-02-24T16:55:15.434Z,36.10
2018-02-24T16:57:41.931Z,37.03
2018-02-24T17:00:09.214Z,38.47
2018-02-24T17:02:36.442Z,37.20
2018-02-24T17:05:02.938Z,35.33
2018-02-24T17:07:29.460Z,30.70
2018-02-24T17:09:55.946Z,30.63
2018-02-24T17:12:22.430Z,31.63
2018-02-24T17:14:48.910Z,32.63
2018-02-24T17:17:16.180Z,35.20
2018-02-24T17:19:42.747Z,35.23
2018-02-24T17:22:10.029Z,35.67
2018-02-24T17:24:36.540Z,32.03
2018-02-24T17:27:03.067Z,26.93
2018-02-24T17:29:29.554Z,25.47
2018-02-24T17:31:56.815Z,15.50
2018-02-24T17:34:24.060Z,16.87
2018-02-24T17:36:50.555Z,14.73
2018-02-24T17:39:17.067Z,15.17
2018-02-24T17:41:43.627Z,16.17
2018-02-24T17:44:10.224Z,14.70
2018-02-24T17:46:36.717Z,13.70
2018-02-24T17:49:03.258Z,14.40
2018-02-24T17:51:29.767Z,13.80
2018-02-24T17:53:56.328Z,13.60
2018-02-24T17:56:22.826Z,14.20
2018-02-24T17:58:49.330Z,13.43
2018-02-24T18:01:15.819Z,14.33
2018-02-24T18:03:42.379Z,14.43
2018-02-24T18:06:08.885Z,13.77
2018-02-24T18:08:36.135Z,13.33
2018-02-24T18:11:02.646Z,14.63
2018-02-24T18:13:29.177Z,14.07
2018-02-24T18:15:55.662Z,13.93
2018-02-24T18:18:22.156Z,14.07
2018-02-24T18:20:48.632Z,14.57
2018-02-24T18:23:15.146Z,13.03
2018-02-24T18:25:42.076Z,14.80
2018-02-24T18:28:08.554Z,15.10
2018-02-24T18:30:35.798Z,15.37
2018-02-24T18:33:02.294Z,15.93
2018-02-24T18:35:28.822Z,15.40
2018-02-24T18:37:55.326Z,15.23
2018-02-24T18:40:21.808Z,14.73
2018-02-24T18:42:49.027Z,15.93
2018-02-24T18:45:15.526Z,15.80
2018-02-24T18:47:42.030Z,14.43
2018-02-24T18:50:08.544Z,14.57
2018-02-24T18:52:35.044Z,13.53
2018-02-24T18:55:02.352Z,15.07
2018-02-24T18:57:28.882Z,15.27
2018-02-24T18:59:55.395Z,18.80
2018-02-24T19:02:22.087Z,20.67
2018-02-24T19:04:48.582Z,21.60
2018-02-24T19:07:15.115Z,21.67
2018-02-24T19:09:41.617Z,20.70
2018-02-24T19:12:08.123Z,20.37
2018-02-24T19:14:34.697Z,19.70
2018-02-24T19:17:01.307Z,19.53
2018-02-24T19:19:27.831Z,17.77
2018-02-24T19:21:54.333Z,16.63
2018-02-24T19:24:20.822Z,15.07
2018-02-24T19:26:47.312Z,14.57
2018-02-24T19:29:13.880Z,16.93
2018-02-24T19:31:40.400Z,20.43
2018-02-24T19:34:07.692Z,17.90
2018-02-24T19:36:34.920Z,17.07
2018-02-24T19:39:01.454Z,16.67
2018-02-24T19:41:28.080Z,17.37
2018-02-24T19:43:54.623Z,16.40
2018-02-24T19:46:21.110Z,17.23
2018-02-24T19:48:47.679Z,17.90
2018-02-24T19:51:14.235Z,21.33
2018-02-24T19:53:40.783Z,20.67
2018-02-24T19:56:08.095Z,19.20
2018-02-24T19:58:34.604Z,18.53
2018-02-24T20:01:01.126Z,21.60
2018-02-24T20:03:27.643Z,19.83
2018-02-24T20:05:54.223Z,20.37
2018-02-24T20:08:20.734Z,21.60
2018-02-24T20:10:47.395Z,22.73
2018-02-24T20:13:13.975Z,21.53
2018-02-24T20:15:40.563Z,19.83
2018-02-24T20:18:07.232Z,20.47
2018-02-24T20:20:33.800Z,20.60
2018-02-24T20:23:00.444Z,19.77
2018-02-24T20:25:26.995Z,20.23
2018-02-24T20:27:53.489Z,18.67
2018-02-24T20:30:20.197Z,17.37
2018-02-24T20:32:46.844Z,16.87
2018-02-24T20:35:14.110Z,16.03
2018-02-24T20:37:40.625Z,15.50
2018-02-24T20:40:07.179Z,12.97
2018-02-24T20:42:33.711Z,11.27
2018-02-24T20:45:00.962Z,11.23
2018-02-24T20:47:28.268Z,11.53
2018-02-24T20:49:54.792Z,10.10
2018-02-24T20:52:23.162Z,10.73
2018-02-24T20:54:49.734Z,10.47
2018-02-24T20:57:16.300Z,10.63
2018-02-24T20:59:42.811Z,10.77
2018-02-24T21:02:09.325Z,10.60
2018-02-24T21:04:35.846Z,10.60
2018-02-24T21:07:02.448Z,10.83
2018-02-24T21:09:28.973Z,10.13
2018-02-24T21:11:55.474Z,9.53
2018-02-24T21:14:21.990Z,9.93
2018-02-24T21:16:49.267Z,9.60
2018-02-24T21:19:15.811Z,9.60
2018-02-24T21:21:42.318Z,9.10
2018-02-24T21:24:08.814Z,9.73
2018-02-24T21:26:36.084Z,8.70
2018-02-24T21:29:02.589Z,9.43
2018-02-24T21:31:29.084Z,8.97
2018-02-24T21:33:55.611Z,8.90
2018-02-24T21:36:22.169Z,9.23
2018-02-24T21:38:48.728Z,9.50
2018-02-24T21:41:15.226Z,8.33
2018-02-24T21:43:41.780Z,9.47
2018-02-24T21:46:08.286Z,8.60
2018-02-24T21:48:35.552Z,7.90
2018-02-24T21:51:02.062Z,9.07
2018-02-24T21:53:28.611Z,8.77
2018-02-24T21:55:55.107Z,8.60
2018-02-24T21:58:21.635Z,7.47
2018-02-24T22:00:48.226Z,7.57
2018-02-24T22:03:15.466Z,7.30
2018-02-24T22:05:42.763Z,7.10
2018-02-24T22:08:09.270Z,5.63
2018-02-24T22:10:35.874Z,6.70
2018-02-24T22:13:02.405Z,6.67
2018-02-24T22:15:28.920Z,7.30
2018-02-24T22:17:55.758Z,7.63
2018-02-24T22:20:22.285Z,7.33
2018-02-24T22:22:48.827Z,7.03
2018-02-24T22:25:15.338Z,7.17
2018-02-24T22:27:41.918Z,7.53
2018-02-24T22:30:08.506Z,7.00
2018-02-24T22:32:35.028Z,6.57
2018-02-24T22:35:01.562Z,6.50
2018-02-24T22:37:28.133Z,5.73
2018-02-24T22:39:54.668Z,6.50
2018-02-24T22:42:21.199Z,7.07
2018-02-24T22:44:47.710Z,6.20
2018-02-24T22:47:14.966Z,6.07
2018-02-24T22:49:41.477Z,6.67
2018-02-24T22:52:08.011Z,6.73
2018-02-24T22:54:34.593Z,6.33
2018-02-24T22:57:01.115Z,6.30
2018-02-24T22:59:27.650Z,6.40
2018-02-24T23:01:54.148Z,5.60
2018-02-24T23:04:20.699Z,5.70
2018-02-24T23:06:47.233Z,5.70
2018-02-24T23:09:13.729Z,6.40
2018-02-24T23:11:40.231Z,6.67
2018-02-24T23:14:06.744Z,6.57
2018-02-24T23:16:33.308Z,6.30
2018-02-24T23:18:59.802Z,5.83
2018-02-24T23:21:26.281Z,6.60
2018-02-24T23:23:52.777Z,6.63
2018-02-24T23:26:19.348Z,6.70
2018-02-24T23:28:46.154Z,6.83
2018-02-24T23:31:13.424Z,7.60
2018-02-24T23:33:40.719Z,7.20
2018-02-24T23:36:07.354Z,7.63
2018-02-24T23:38:33.877Z,6.77
2018-02-24T23:41:00.397Z,8.20
2018-02-24T23:43:26.889Z,6.77
2018-02-24T23:45:53.371Z,6.97
2018-02-24T23:48:19.933Z,7.77
2018-02-24T23:50:46.554Z,7.47
2018-02-24T23:53:13.046Z,7.40
2018-02-24T23:55:39.590Z,8.43
2018-02-24T23:58:06.854Z,7.63
